sensor_id;sensor_type;location;lat;lon;timestamp;P1;durP1;ratioP1;P2;durP2;ratioP2
12383;SDS011;6256;63.808;20.336;2023-05-24T00:00:15;4.67;;;3.93;;
12383;SDS011;6256;63.808;20.336;2023-05-24T00:02:41;3.83;;;3.40;;
12383;SDS011;6256;63.808;20.336;2023-05-24T00:05:07;6.20;;;4.00;;
12383;SDS011;6256;63.808;20.336;2023-05-24T00:07:34;5.27;;;3.17;;
12383;SDS011;6256;63.808;20.336;2023-05-24T00:10:01;4.20;;;3.73;;
12383;SDS011;6256;63.808;20.336;2023-05-24T00:12:30;6.83;;;3.77;;
12383;SDS011;6256;63.808;20.336;2023-05-24T00:14:56;3.63;;;3.17;;
12383;SDS011;6256;63.808;20.336;2023-05-24T00:17:22;3.97;;;3.23;;
12383;SDS011;6256;63.808;20.336;2023-05-24T00:19:49;3.93;;;3.53;;
12383;SDS011;6256;63.808;20.336;2023-05-24T00:22:16;3.50;;;3.20;;
12383;SDS011;6256;63.808;20.336;2023-05-24T00:24:44;4.00;;;3.60;;
12383;SDS011;6256;63.808;20.336;2023-05-24T00:27:12;4.97;;;3.70;;
12383;SDS011;6256;63.808;20.336;2023-05-24T00:29:38;5.60;;;3.67;;
12383;SDS011;6256;63.808;20.336;2023-05-24T00:32:04;4.57;;;3.67;;
12383;SDS011;6256;63.808;20.336;2023-05-24T00:34:30;5.17;;;4.00;;
12383;SDS011;6256;63.808;20.336;2023-05-24T00:36:56;4.27;;;3.77;;
12383;SDS011;6256;63.808;20.336;2023-05-24T00:39:22;4.77;;;4.00;;
12383;SDS011;6256;63.808;20.336;2023-05-24T00:41:48;4.00;;;3.60;;
12383;SDS011;6256;63.808;20.336;2023-05-24T00:44:14;5.63;;;4.43;;
12383;SDS011;6256;63.808;20.336;2023-05-24T00:46:40;5.50;;;3.90;;
12383;SDS011;6256;63.808;20.336;2023-05-24T00:49:06;3.93;;;3.53;;
12383;SDS011;6256;63.808;20.336;2023-05-24T00:51:32;5.00;;;3.73;;
12383;SDS011;6256;63.808;20.336;2023-05-24T00:53:58;4.57;;;3.93;;
12383;SDS011;6256;63.808;20.336;2023-05-24T00:56:24;7.53;;;3.83;;
12383;SDS011;6256;63.808;20.336;2023-05-24T00:58:51;4.83;;;4.10;;
12383;SDS011;6256;63.808;20.336;2023-05-24T01:01:21;4.50;;;3.90;;
12383;SDS011;6256;63.808;20.336;2023-05-24T01:03:50;4.03;;;3.63;;
12383;SDS011;6256;63.808;20.336;2023-05-24T01:06:17;5.33;;;4.03;;
12383;SDS011;6256;63.808;20.336;2023-05-24T01:11:56;6.67;;;4.10;;
12383;SDS011;6256;63.808;20.336;2023-05-24T01:14:40;6.07;;;4.20;;
12383;SDS011;6256;63.808;20.336;2023-05-24T01:17:18;6.60;;;4.03;;
12383;SDS011;6256;63.808;20.336;2023-05-24T01:19:53;4.40;;;4.00;;
12383;SDS011;6256;63.808;20.336;2023-05-24T01:25:02;6.23;;;4.47;;
12383;SDS011;6256;63.808;20.336;2023-05-24T01:27:32;4.87;;;4.10;;
12383;SDS011;6256;63.808;20.336;2023-05-24T01:29:59;5.77;;;5.10;;
12383;SDS011;6256;63.808;20.336;2023-05-24T01:32:27;7.10;;;4.80;;
12383;SDS011;6256;63.808;20.336;2023-05-24T01:34:53;5.80;;;4.70;;
12383;SDS011;6256;63.808;20.336;2023-05-24T01:37:19;5.57;;;4.93;;
12383;SDS011;6256;63.808;20.336;2023-05-24T01:39:45;7.20;;;4.63;;
12383;SDS011;6256;63.808;20.336;2023-05-24T01:47:25;6.90;;;4.97;;
12383;SDS011;6256;63.808;20.336;2023-05-24T01:50:13;6.47;;;5.20;;
12383;SDS011;6256;63.808;20.336;2023-05-24T01:52:44;6.27;;;5.27;;
12383;SDS011;6256;63.808;20.336;2023-05-24T01:55:12;6.47;;;5.17;;
12383;SDS011;6256;63.808;20.336;2023-05-24T01:57:41;5.73;;;5.13;;
12383;SDS011;6256;63.808;20.336;2023-05-24T02:00:09;5.93;;;5.17;;
12383;SDS011;6256;63.808;20.336;2023-05-24T02:02:35;7.30;;;5.53;;
12383;SDS011;6256;63.808;20.336;2023-05-24T02:05:02;6.67;;;5.30;;
12383;SDS011;6256;63.808;20.336;2023-05-24T02:07:28;8.20;;;5.57;;
12383;SDS011;6256;63.808;20.336;2023-05-24T02:09:53;7.30;;;5.63;;
12383;SDS011;6256;63.808;20.336;2023-05-24T02:12:19;6.67;;;5.47;;
12383;SDS011;6256;63.808;20.336;2023-05-24T02:14:45;6.80;;;5.90;;
12383;SDS011;6256;63.808;20.336;2023-05-24T02:17:14;8.57;;;7.07;;
12383;SDS011;6256;63.808;20.336;2023-05-24T02:19:43;7.13;;;6.43;;
12383;SDS011;6256;63.808;20.336;2023-05-24T02:22:09;6.50;;;5.77;;
12383;SDS011;6256;63.808;20.336;2023-05-24T02:24:36;10.30;;;6.63;;
12383;SDS011;6256;63.808;20.336;2023-05-24T02:27:04;7.77;;;6.67;;
12383;SDS011;6256;63.808;20.336;2023-05-24T02:29:30;7.47;;;5.97;;
12383;SDS011;6256;63.808;20.336;2023-05-24T02:31:56;6.57;;;5.33;;
12383;SDS011;6256;63.808;20.336;2023-05-24T02:34:22;6.27;;;5.43;;
12383;SDS011;6256;63.808;20.336;2023-05-24T02:36:48;6.87;;;5.77;;
12383;SDS011;6256;63.808;20.336;2023-05-24T02:39:14;6.57;;;5.40;;
12383;SDS011;6256;63.808;20.336;2023-05-24T02:41:40;6.90;;;5.57;;
12383;SDS011;6256;63.808;20.336;2023-05-24T02:44:06;6.87;;;5.87;;
12383;SDS011;6256;63.808;20.336;2023-05-24T02:46:32;8.47;;;5.70;;
12383;SDS011;6256;63.808;20.336;2023-05-24T02:48:57;8.53;;;6.37;;
12383;SDS011;6256;63.808;20.336;2023-05-24T02:51:23;6.57;;;5.90;;
12383;SDS011;6256;63.808;20.336;2023-05-24T02:53:49;8.13;;;6.43;;
12383;SDS011;6256;63.808;20.336;2023-05-24T02:56:15;7.00;;;6.30;;
12383;SDS011;6256;63.808;20.336;2023-05-24T02:58:44;8.20;;;6.27;;
12383;SDS011;6256;63.808;20.336;2023-05-24T03:01:10;8.03;;;6.37;;
12383;SDS011;6256;63.808;20.336;2023-05-24T03:03:37;6.83;;;6.13;;
12383;SDS011;6256;63.808;20.336;2023-05-24T03:06:03;10.10;;;6.77;;
12383;SDS011;6256;63.808;20.336;2023-05-24T03:08:31;7.33;;;5.47;;
12383;SDS011;6256;63.808;20.336;2023-05-24T03:11:01;8.97;;;6.53;;
12383;SDS011;6256;63.808;20.336;2023-05-24T03:13:27;7.53;;;6.73;;
12383;SDS011;6256;63.808;20.336;2023-05-24T03:15:52;7.97;;;6.07;;
12383;SDS011;6256;63.808;20.336;2023-05-24T03:18:18;6.07;;;5.47;;
12383;SDS011;6256;63.808;20.336;2023-05-24T03:20:44;8.50;;;6.77;;
12383;SDS011;6256;63.808;20.336;2023-05-24T03:23:10;6.97;;;5.90;;
12383;SDS011;6256;63.808;20.336;2023-05-24T03:25:36;8.30;;;6.03;;
12383;SDS011;6256;63.808;20.336;2023-05-24T03:28:02;6.53;;;5.30;;
12383;SDS011;6256;63.808;20.336;2023-05-24T03:30:28;7.13;;;5.67;;
12383;SDS011;6256;63.808;20.336;2023-05-24T03:32:54;7.83;;;5.40;;
12383;SDS011;6256;63.808;20.336;2023-05-24T03:35:19;6.00;;;5.33;;
12383;SDS011;6256;63.808;20.336;2023-05-24T03:37:45;6.43;;;5.43;;
12383;SDS011;6256;63.808;20.336;2023-05-24T03:40:11;7.80;;;5.50;;
12383;SDS011;6256;63.808;20.336;2023-05-24T03:42:37;7.43;;;5.47;;
12383;SDS011;6256;63.808;20.336;2023-05-24T03:45:03;6.40;;;4.67;;
12383;SDS011;6256;63.808;20.336;2023-05-24T03:47:30;5.70;;;5.10;;
12383;SDS011;6256;63.808;20.336;2023-05-24T03:49:55;6.47;;;4.57;;
12383;SDS011;6256;63.808;20.336;2023-05-24T03:52:22;5.53;;;4.00;;
12383;SDS011;6256;63.808;20.336;2023-05-24T03:54:49;4.47;;;4.03;;
12383;SDS011;6256;63.808;20.336;2023-05-24T03:57:15;4.23;;;3.53;;
12383;SDS011;6256;63.808;20.336;2023-05-24T03:59:41;4.70;;;4.10;;
12383;SDS011;6256;63.808;20.336;2023-05-24T04:02:06;3.87;;;3.57;;
12383;SDS011;6256;63.808;20.336;2023-05-24T04:04:32;4.57;;;3.70;;
12383;SDS011;6256;63.808;20.336;2023-05-24T04:06:58;6.87;;;4.20;;
12383;SDS011;6256;63.808;20.336;2023-05-24T04:09:23;5.33;;;4.00;;
12383;SDS011;6256;63.808;20.336;2023-05-24T04:11:49;4.47;;;3.93;;
12383;SDS011;6256;63.808;20.336;2023-05-24T04:14:15;4.00;;;3.53;;
12383;SDS011;6256;63.808;20.336;2023-05-24T04:16:41;4.53;;;3.50;;
12383;SDS011;6256;63.808;20.336;2023-05-24T04:19:09;4.67;;;3.33;;
12383;SDS011;6256;63.808;20.336;2023-05-24T04:21:36;4.57;;;3.67;;
12383;SDS011;6256;63.808;20.336;2023-05-24T04:24:02;4.33;;;3.30;;
12383;SDS011;6256;63.808;20.336;2023-05-24T04:26:29;6.03;;;3.50;;
12383;SDS011;6256;63.808;20.336;2023-05-24T04:28:55;8.17;;;3.60;;
12383;SDS011;6256;63.808;20.336;2023-05-24T04:31:21;3.60;;;3.27;;
12383;SDS011;6256;63.808;20.336;2023-05-24T04:33:53;3.80;;;3.33;;
12383;SDS011;6256;63.808;20.336;2023-05-24T04:36:19;4.03;;;3.60;;
12383;SDS011;6256;63.808;20.336;2023-05-24T04:38:46;3.53;;;3.23;;
12383;SDS011;6256;63.808;20.336;2023-05-24T04:41:12;4.20;;;3.33;;
12383;SDS011;6256;63.808;20.336;2023-05-24T04:43:38;3.97;;;3.07;;
12383;SDS011;6256;63.808;20.336;2023-05-24T04:46:04;4.30;;;2.90;;
12383;SDS011;6256;63.808;20.336;2023-05-24T04:48:30;4.63;;;3.10;;
12383;SDS011;6256;63.808;20.336;2023-05-24T04:50:56;3.37;;;2.50;;
12383;SDS011;6256;63.808;20.336;2023-05-24T04:53:25;3.00;;;2.70;;
12383;SDS011;6256;63.808;20.336;2023-05-24T04:55:51;3.33;;;3.03;;
12383;SDS011;6256;63.808;20.336;2023-05-24T04:58:17;3.80;;;3.03;;
12383;SDS011;6256;63.808;20.336;2023-05-24T05:00:43;3.43;;;2.80;;
12383;SDS011;6256;63.808;20.336;2023-05-24T05:03:09;2.50;;;2.27;;
12383;SDS011;6256;63.808;20.336;2023-05-24T05:05:35;3.07;;;2.57;;
12383;SDS011;6256;63.808;20.336;2023-05-24T05:08:01;3.40;;;2.37;;
12383;SDS011;6256;63.808;20.336;2023-05-24T05:10:28;3.13;;;2.00;;
12383;SDS011;6256;63.808;20.336;2023-05-24T05:12:54;4.53;;;2.00;;
12383;SDS011;6256;63.808;20.336;2023-05-24T05:15:21;2.20;;;1.90;;
12383;SDS011;6256;63.808;20.336;2023-05-24T05:17:48;2.27;;;2.00;;
12383;SDS011;6256;63.808;20.336;2023-05-24T05:20:14;2.10;;;1.80;;
12383;SDS011;6256;63.808;20.336;2023-05-24T05:22:44;1.70;;;1.50;;
12383;SDS011;6256;63.808;20.336;2023-05-24T05:25:11;1.57;;;1.47;;
12383;SDS011;6256;63.808;20.336;2023-05-24T05:27:36;1.47;;;1.37;;
12383;SDS011;6256;63.808;20.336;2023-05-24T05:30:02;2.07;;;1.47;;
12383;SDS011;6256;63.808;20.336;2023-05-24T05:32:28;2.73;;;1.63;;
12383;SDS011;6256;63.808;20.336;2023-05-24T05:34:53;1.70;;;1.60;;
12383;SDS011;6256;63.808;20.336;2023-05-24T05:37:19;1.93;;;1.63;;
12383;SDS011;6256;63.808;20.336;2023-05-24T05:39:45;2.93;;;1.73;;
12383;SDS011;6256;63.808;20.336;2023-05-24T05:42:11;3.63;;;1.70;;
12383;SDS011;6256;63.808;20.336;2023-05-24T05:44:36;4.03;;;1.93;;
12383;SDS011;6256;63.808;20.336;2023-05-24T05:47:02;2.03;;;1.80;;
12383;SDS011;6256;63.808;20.336;2023-05-24T05:49:29;1.90;;;1.80;;
12383;SDS011;6256;63.808;20.336;2023-05-24T05:51:55;2.07;;;1.83;;
12383;SDS011;6256;63.808;20.336;2023-05-24T05:54:21;2.50;;;1.83;;
12383;SDS011;6256;63.808;20.336;2023-05-24T05:56:50;4.03;;;1.67;;
12383;SDS011;6256;63.808;20.336;2023-05-24T05:59:16;2.60;;;1.70;;
12383;SDS011;6256;63.808;20.336;2023-05-24T06:01:42;5.30;;;1.97;;
12383;SDS011;6256;63.808;20.336;2023-05-24T06:04:10;2.00;;;1.60;;
12383;SDS011;6256;63.808;20.336;2023-05-24T06:06:36;2.30;;;1.50;;
12383;SDS011;6256;63.808;20.336;2023-05-24T06:09:02;2.23;;;1.80;;
12383;SDS011;6256;63.808;20.336;2023-05-24T06:11:28;2.00;;;1.80;;
12383;SDS011;6256;63.808;20.336;2023-05-24T06:13:54;4.27;;;1.97;;
12383;SDS011;6256;63.808;20.336;2023-05-24T06:16:19;1.90;;;1.70;;
12383;SDS011;6256;63.808;20.336;2023-05-24T06:18:45;1.90;;;1.77;;
12383;SDS011;6256;63.808;20.336;2023-05-24T06:21:12;3.50;;;1.80;;
12383;SDS011;6256;63.808;20.336;2023-05-24T06:23:38;3.20;;;1.80;;
12383;SDS011;6256;63.808;20.336;2023-05-24T06:26:05;2.70;;;1.70;;
12383;SDS011;6256;63.808;20.336;2023-05-24T06:28:33;2.90;;;1.85;;
12383;SDS011;6256;63.808;20.336;2023-05-24T06:31:00;1.83;;;1.60;;
12383;SDS011;6256;63.808;20.336;2023-05-24T06:33:26;2.35;;;1.70;;
12383;SDS011;6256;63.808;20.336;2023-05-24T06:35:52;2.08;;;1.70;;
12383;SDS011;6256;63.808;20.336;2023-05-24T06:38:17;1.60;;;1.50;;
12383;SDS011;6256;63.808;20.336;2023-05-24T06:40:43;1.88;;;1.52;;
12383;SDS011;6256;63.808;20.336;2023-05-24T06:43:09;3.30;;;1.52;;
12383;SDS011;6256;63.808;20.336;2023-05-24T06:45:35;2.70;;;1.70;;
12383;SDS011;6256;63.808;20.336;2023-05-24T06:48:01;5.95;;;1.52;;
12383;SDS011;6256;63.808;20.336;2023-05-24T06:50:27;3.83;;;1.58;;
12383;SDS011;6256;63.808;20.336;2023-05-24T06:52:53;1.58;;;1.40;;
12383;SDS011;6256;63.808;20.336;2023-05-24T06:55:18;1.60;;;1.50;;
12383;SDS011;6256;63.808;20.336;2023-05-24T06:57:44;1.77;;;1.38;;
12383;SDS011;6256;63.808;20.336;2023-05-24T07:00:10;1.30;;;1.20;;
12383;SDS011;6256;63.808;20.336;2023-05-24T07:02:37;7.70;;;1.42;;
12383;SDS011;6256;63.808;20.336;2023-05-24T07:05:03;1.67;;;1.50;;
12383;SDS011;6256;63.808;20.336;2023-05-24T07:07:30;2.30;;;1.40;;
12383;SDS011;6256;63.808;20.336;2023-05-24T07:09:56;1.25;;;1.15;;
12383;SDS011;6256;63.808;20.336;2023-05-24T07:12:22;1.52;;;1.05;;
12383;SDS011;6256;63.808;20.336;2023-05-24T07:14:47;3.35;;;1.40;;
12383;SDS011;6256;63.808;20.336;2023-05-24T07:17:13;0.77;;;0.77;;
12383;SDS011;6256;63.808;20.336;2023-05-24T07:19:39;1.20;;;1.10;;
12383;SDS011;6256;63.808;20.336;2023-05-24T07:22:05;3.03;;;1.08;;
12383;SDS011;6256;63.808;20.336;2023-05-24T07:24:31;1.23;;;0.90;;
12383;SDS011;6256;63.808;20.336;2023-05-24T07:26:57;1.63;;;1.00;;
12383;SDS011;6256;63.808;20.336;2023-05-24T07:29:23;1.13;;;0.90;;
12383;SDS011;6256;63.808;20.336;2023-05-24T07:31:48;0.82;;;0.82;;
12383;SDS011;6256;63.808;20.336;2023-05-24T07:34:14;1.98;;;1.10;;
12383;SDS011;6256;63.808;20.336;2023-05-24T07:36:40;1.13;;;0.90;;
12383;SDS011;6256;63.808;20.336;2023-05-24T07:39:06;1.63;;;1.05;;
12383;SDS011;6256;63.808;20.336;2023-05-24T07:41:34;1.48;;;1.00;;
12383;SDS011;6256;63.808;20.336;2023-05-24T07:44:00;1.88;;;1.10;;
12383;SDS011;6256;63.808;20.336;2023-05-24T07:46:26;0.98;;;0.90;;
12383;SDS011;6256;63.808;20.336;2023-05-24T07:48:52;0.80;;;0.80;;
12383;SDS011;6256;63.808;20.336;2023-05-24T07:51:18;1.17;;;1.08;;
12383;SDS011;6256;63.808;20.336;2023-05-24T07:53:45;1.23;;;0.88;;
12383;SDS011;6256;63.808;20.336;2023-05-24T07:56:11;1.15;;;0.82;;
12383;SDS011;6256;63.808;20.336;2023-05-24T07:58:36;1.42;;;1.10;;
12383;SDS011;6256;63.808;20.336;2023-05-24T08:01:04;2.90;;;1.00;;
12383;SDS011;6256;63.808;20.336;2023-05-24T08:03:30;1.35;;;1.10;;
12383;SDS011;6256;63.808;20.336;2023-05-24T08:05:56;2.97;;;1.00;;
12383;SDS011;6256;63.808;20.336;2023-05-24T08:08:25;1.20;;;1.10;;
12383;SDS011;6256;63.808;20.336;2023-05-24T08:10:50;1.20;;;1.10;;
12383;SDS011;6256;63.808;20.336;2023-05-24T08:13:16;1.10;;;1.00;;
12383;SDS011;6256;63.808;20.336;2023-05-24T08:15:42;2.30;;;1.00;;
12383;SDS011;6256;63.808;20.336;2023-05-24T08:18:07;0.70;;;0.70;;
12383;SDS011;6256;63.808;20.336;2023-05-24T08:20:33;0.95;;;0.85;;
12383;SDS011;6256;63.808;20.336;2023-05-24T08:23:00;1.52;;;1.10;;
12383;SDS011;6256;63.808;20.336;2023-05-24T08:25:26;1.30;;;1.20;;
12383;SDS011;6256;63.808;20.336;2023-05-24T08:27:53;1.00;;;0.93;;
12383;SDS011;6256;63.808;20.336;2023-05-24T08:30:21;1.23;;;1.13;;
12383;SDS011;6256;63.808;20.336;2023-05-24T08:32:47;1.13;;;0.90;;
12383;SDS011;6256;63.808;20.336;2023-05-24T08:35:13;1.00;;;0.90;;
12383;SDS011;6256;63.808;20.336;2023-05-24T08:37:39;1.73;;;1.02;;
12383;SDS011;6256;63.808;20.336;2023-05-24T08:40:05;1.35;;;0.90;;
12383;SDS011;6256;63.808;20.336;2023-05-24T08:42:33;2.47;;;1.20;;
12383;SDS011;6256;63.808;20.336;2023-05-24T08:45:03;1.25;;;1.15;;
12383;SDS011;6256;63.808;20.336;2023-05-24T08:47:33;2.03;;;1.30;;
12383;SDS011;6256;63.808;20.336;2023-05-24T08:50:01;1.80;;;1.00;;
12383;SDS011;6256;63.808;20.336;2023-05-24T08:52:28;1.20;;;1.02;;
12383;SDS011;6256;63.808;20.336;2023-05-24T08:54:55;1.08;;;0.98;;
12383;SDS011;6256;63.808;20.336;2023-05-24T08:57:23;4.38;;;1.35;;
12383;SDS011;6256;63.808;20.336;2023-05-24T08:59:51;0.75;;;0.75;;
12383;SDS011;6256;63.808;20.336;2023-05-24T09:02:20;0.90;;;0.90;;
12383;SDS011;6256;63.808;20.336;2023-05-24T09:04:46;1.80;;;0.77;;
12383;SDS011;6256;63.808;20.336;2023-05-24T09:07:16;2.58;;;1.08;;
12383;SDS011;6256;63.808;20.336;2023-05-24T09:09:46;2.22;;;1.10;;
12383;SDS011;6256;63.808;20.336;2023-05-24T09:12:15;1.60;;;1.10;;
12383;SDS011;6256;63.808;20.336;2023-05-24T09:14:44;1.35;;;1.00;;
12383;SDS011;6256;63.808;20.336;2023-05-24T09:17:11;2.22;;;1.35;;
12383;SDS011;6256;63.808;20.336;2023-05-24T09:19:43;1.50;;;1.05;;
12383;SDS011;6256;63.808;20.336;2023-05-24T09:22:11;1.63;;;1.30;;
12383;SDS011;6256;63.808;20.336;2023-05-24T09:24:41;1.13;;;1.00;;
12383;SDS011;6256;63.808;20.336;2023-05-24T09:27:07;1.65;;;1.00;;
12383;SDS011;6256;63.808;20.336;2023-05-24T09:29:36;2.55;;;1.25;;
12383;SDS011;6256;63.808;20.336;2023-05-24T09:32:02;2.58;;;1.10;;
12383;SDS011;6256;63.808;20.336;2023-05-24T09:34:38;1.77;;;1.27;;
12383;SDS011;6256;63.808;20.336;2023-05-24T09:37:04;1.83;;;1.20;;
12383;SDS011;6256;63.808;20.336;2023-05-24T09:39:31;1.60;;;1.10;;
12383;SDS011;6256;63.808;20.336;2023-05-24T09:41:57;1.85;;;1.20;;
12383;SDS011;6256;63.808;20.336;2023-05-24T09:44:23;2.55;;;1.10;;
12383;SDS011;6256;63.808;20.336;2023-05-24T09:46:52;1.27;;;0.90;;
12383;SDS011;6256;63.808;20.336;2023-05-24T09:49:19;5.57;;;1.10;;
12383;SDS011;6256;63.808;20.336;2023-05-24T09:51:45;1.58;;;1.00;;
12383;SDS011;6256;63.808;20.336;2023-05-24T09:54:11;1.48;;;1.00;;
12383;SDS011;6256;63.808;20.336;2023-05-24T09:56:37;1.90;;;1.05;;
12383;SDS011;6256;63.808;20.336;2023-05-24T09:59:07;2.35;;;0.90;;
12383;SDS011;6256;63.808;20.336;2023-05-24T10:01:33;2.50;;;1.10;;
12383;SDS011;6256;63.808;20.336;2023-05-24T10:04:00;1.55;;;1.30;;
12383;SDS011;6256;63.808;20.336;2023-05-24T10:06:27;1.23;;;1.10;;
12383;SDS011;6256;63.808;20.336;2023-05-24T10:08:57;1.08;;;0.95;;
12383;SDS011;6256;63.808;20.336;2023-05-24T10:11:23;3.53;;;1.20;;
12383;SDS011;6256;63.808;20.336;2023-05-24T10:13:50;1.55;;;1.27;;
12383;SDS011;6256;63.808;20.336;2023-05-24T10:16:16;2.28;;;1.42;;
12383;SDS011;6256;63.808;20.336;2023-05-24T10:18:42;1.83;;;1.38;;
12383;SDS011;6256;63.808;20.336;2023-05-24T10:21:08;4.68;;;1.55;;
12383;SDS011;6256;63.808;20.336;2023-05-24T10:23:37;5.15;;;1.85;;
12383;SDS011;6256;63.808;20.336;2023-05-24T10:26:04;2.45;;;1.90;;
12383;SDS011;6256;63.808;20.336;2023-05-24T10:28:50;2.90;;;1.67;;
12383;SDS011;6256;63.808;20.336;2023-05-24T10:31:29;3.13;;;1.60;;
12383;SDS011;6256;63.808;20.336;2023-05-24T10:33:57;2.55;;;1.77;;
12383;SDS011;6256;63.808;20.336;2023-05-24T10:36:24;3.33;;;2.00;;
12383;SDS011;6256;63.808;20.336;2023-05-24T10:38:50;4.72;;;1.92;;
12383;SDS011;6256;63.808;20.336;2023-05-24T10:41:16;1.67;;;1.58;;
12383;SDS011;6256;63.808;20.336;2023-05-24T10:43:44;2.45;;;1.80;;
12383;SDS011;6256;63.808;20.336;2023-05-24T10:46:13;2.85;;;1.77;;
12383;SDS011;6256;63.808;20.336;2023-05-24T10:48:42;2.22;;;1.40;;
12383;SDS011;6256;63.808;20.336;2023-05-24T10:54:23;2.60;;;1.75;;
12383;SDS011;6256;63.808;20.336;2023-05-24T10:56:51;2.28;;;1.90;;
12383;SDS011;6256;63.808;20.336;2023-05-24T10:59:21;3.55;;;2.58;;
12383;SDS011;6256;63.808;20.336;2023-05-24T11:01:58;3.60;;;1.92;;
12383;SDS011;6256;63.808;20.336;2023-05-24T11:04:25;4.05;;;1.98;;
12383;SDS011;6256;63.808;20.336;2023-05-24T11:09:22;2.88;;;1.83;;
12383;SDS011;6256;63.808;20.336;2023-05-24T11:11:49;2.85;;;1.80;;
12383;SDS011;6256;63.808;20.336;2023-05-24T11:14:19;3.13;;;1.90;;
12383;SDS011;6256;63.808;20.336;2023-05-24T11:16:49;3.53;;;1.83;;
12383;SDS011;6256;63.808;20.336;2023-05-24T11:21:42;2.15;;;1.95;;
12383;SDS011;6256;63.808;20.336;2023-05-24T11:24:09;3.67;;;2.30;;
12383;SDS011;6256;63.808;20.336;2023-05-24T11:26:34;4.72;;;1.90;;
12383;SDS011;6256;63.808;20.336;2023-05-24T11:29:01;3.67;;;1.92;;
12383;SDS011;6256;63.808;20.336;2023-05-24T11:31:29;5.22;;;2.15;;
12383;SDS011;6256;63.808;20.336;2023-05-24T11:33:55;3.53;;;2.40;;
12383;SDS011;6256;63.808;20.336;2023-05-24T11:36:21;2.33;;;1.83;;
12383;SDS011;6256;63.808;20.336;2023-05-24T11:38:50;2.95;;;2.25;;
12383;SDS011;6256;63.808;20.336;2023-05-24T11:41:18;4.05;;;2.42;;
12383;SDS011;6256;63.808;20.336;2023-05-24T11:43:44;2.78;;;2.30;;
12383;SDS011;6256;63.808;20.336;2023-05-24T11:46:09;3.85;;;2.20;;
12383;SDS011;6256;63.808;20.336;2023-05-24T11:48:35;3.97;;;2.10;;
12383;SDS011;6256;63.808;20.336;2023-05-24T11:51:02;3.38;;;2.45;;
12383;SDS011;6256;63.808;20.336;2023-05-24T11:53:29;2.45;;;1.90;;
12383;SDS011;6256;63.808;20.336;2023-05-24T11:55:55;3.33;;;1.98;;
12383;SDS011;6256;63.808;20.336;2023-05-24T11:58:22;3.60;;;1.67;;
12383;SDS011;6256;63.808;20.336;2023-05-24T12:00:49;4.15;;;1.95;;
12383;SDS011;6256;63.808;20.336;2023-05-24T12:03:16;2.85;;;2.05;;
12383;SDS011;6256;63.808;20.336;2023-05-24T12:05:42;2.15;;;1.95;;
12383;SDS011;6256;63.808;20.336;2023-05-24T12:08:08;4.95;;;1.73;;
12383;SDS011;6256;63.808;20.336;2023-05-24T12:10:36;2.67;;;1.90;;
12383;SDS011;6256;63.808;20.336;2023-05-24T12:13:03;2.60;;;1.75;;
12383;SDS011;6256;63.808;20.336;2023-05-24T12:15:30;5.20;;;2.00;;
12383;SDS011;6256;63.808;20.336;2023-05-24T12:17:56;1.92;;;1.75;;
12383;SDS011;6256;63.808;20.336;2023-05-24T12:20:22;2.22;;;1.98;;
12383;SDS011;6256;63.808;20.336;2023-05-24T12:22:51;4.03;;;1.85;;
12383;SDS011;6256;63.808;20.336;2023-05-24T12:25:18;2.42;;;1.80;;
12383;SDS011;6256;63.808;20.336;2023-05-24T12:27:46;3.30;;;1.90;;
12383;SDS011;6256;63.808;20.336;2023-05-24T12:30:13;3.58;;;2.20;;
12383;SDS011;6256;63.808;20.336;2023-05-24T12:32:45;4.85;;;2.22;;
12383;SDS011;6256;63.808;20.336;2023-05-24T12:35:12;2.25;;;1.73;;
12383;SDS011;6256;63.808;20.336;2023-05-24T12:37:38;2.40;;;2.00;;
12383;SDS011;6256;63.808;20.336;2023-05-24T12:40:19;2.15;;;1.75;;
12383;SDS011;6256;63.808;20.336;2023-05-24T12:42:49;3.13;;;2.30;;
12383;SDS011;6256;63.808;20.336;2023-05-24T12:45:18;2.38;;;2.03;;
12383;SDS011;6256;63.808;20.336;2023-05-24T12:47:49;3.53;;;1.60;;
12383;SDS011;6256;63.808;20.336;2023-05-24T12:50:19;2.80;;;2.17;;
12383;SDS011;6256;63.808;20.336;2023-05-24T12:52:46;3.72;;;2.00;;
12383;SDS011;6256;63.808;20.336;2023-05-24T12:55:15;2.42;;;1.95;;
12383;SDS011;6256;63.808;20.336;2023-05-24T12:57:41;1.92;;;1.83;;
12383;SDS011;6256;63.808;20.336;2023-05-24T13:00:08;4.43;;;2.30;;
12383;SDS011;6256;63.808;20.336;2023-05-24T13:02:38;4.20;;;1.98;;
12383;SDS011;6256;63.808;20.336;2023-05-24T13:05:05;3.63;;;2.15;;
12383;SDS011;6256;63.808;20.336;2023-05-24T13:07:32;3.55;;;1.92;;
12383;SDS011;6256;63.808;20.336;2023-05-24T13:09:58;3.13;;;2.33;;
12383;SDS011;6256;63.808;20.336;2023-05-24T13:12:24;3.25;;;1.90;;
12383;SDS011;6256;63.808;20.336;2023-05-24T13:14:51;3.72;;;2.00;;
12383;SDS011;6256;63.808;20.336;2023-05-24T13:17:17;2.40;;;2.10;;
12383;SDS011;6256;63.808;20.336;2023-05-24T13:19:43;5.60;;;2.50;;
12383;SDS011;6256;63.808;20.336;2023-05-24T13:22:09;3.88;;;1.90;;
12383;SDS011;6256;63.808;20.336;2023-05-24T13:24:35;2.95;;;1.90;;
12383;SDS011;6256;63.808;20.336;2023-05-24T13:27:01;3.65;;;2.28;;
12383;SDS011;6256;63.808;20.336;2023-05-24T13:29:27;4.85;;;2.35;;
12383;SDS011;6256;63.808;20.336;2023-05-24T13:31:53;3.40;;;2.33;;
12383;SDS011;6256;63.808;20.336;2023-05-24T13:34:20;2.10;;;1.75;;
12383;SDS011;6256;63.808;20.336;2023-05-24T13:36:47;2.88;;;2.10;;
12383;SDS011;6256;63.808;20.336;2023-05-24T13:39:13;2.70;;;1.80;;
12383;SDS011;6256;63.808;20.336;2023-05-24T13:41:39;3.65;;;2.20;;
12383;SDS011;6256;63.808;20.336;2023-05-24T13:44:05;3.53;;;2.33;;
12383;SDS011;6256;63.808;20.336;2023-05-24T13:46:31;2.10;;;1.90;;
12383;SDS011;6256;63.808;20.336;2023-05-24T13:48:57;3.22;;;2.30;;
12383;SDS011;6256;63.808;20.336;2023-05-24T13:51:23;3.15;;;2.33;;
12383;SDS011;6256;63.808;20.336;2023-05-24T13:53:51;3.63;;;2.30;;
12383;SDS011;6256;63.808;20.336;2023-05-24T13:56:16;3.83;;;2.28;;
12383;SDS011;6256;63.808;20.336;2023-05-24T13:58:42;2.30;;;2.10;;
12383;SDS011;6256;63.808;20.336;2023-05-24T14:01:09;3.33;;;2.03;;
12383;SDS011;6256;63.808;20.336;2023-05-24T14:03:35;4.90;;;2.50;;
12383;SDS011;6256;63.808;20.336;2023-05-24T14:06:00;3.03;;;2.25;;
12383;SDS011;6256;63.808;20.336;2023-05-24T14:08:26;3.35;;;2.50;;
12383;SDS011;6256;63.808;20.336;2023-05-24T14:10:52;2.38;;;2.13;;
12383;SDS011;6256;63.808;20.336;2023-05-24T14:13:18;2.92;;;2.58;;
12383;SDS011;6256;63.808;20.336;2023-05-24T14:15:44;3.75;;;2.30;;
12383;SDS011;6256;63.808;20.336;2023-05-24T14:18:10;2.78;;;2.55;;
12383;SDS011;6256;63.808;20.336;2023-05-24T14:20:36;3.78;;;2.17;;
12383;SDS011;6256;63.808;20.336;2023-05-24T14:23:03;3.40;;;2.53;;
12383;SDS011;6256;63.808;20.336;2023-05-24T14:25:30;3.08;;;2.53;;
12383;SDS011;6256;63.808;20.336;2023-05-24T14:27:57;3.30;;;2.95;;
12383;SDS011;6256;63.808;20.336;2023-05-24T14:30:23;2.90;;;2.70;;
12383;SDS011;6256;63.808;20.336;2023-05-24T14:32:49;4.47;;;2.95;;
12383;SDS011;6256;63.808;20.336;2023-05-24T14:35:15;3.13;;;2.83;;
12383;SDS011;6256;63.808;20.336;2023-05-24T14:37:41;3.38;;;2.92;;
12383;SDS011;6256;63.808;20.336;2023-05-24T14:40:07;6.85;;;3.13;;
12383;SDS011;6256;63.808;20.336;2023-05-24T14:42:33;3.60;;;2.60;;
12383;SDS011;6256;63.808;20.336;2023-05-24T14:44:59;3.87;;;2.97;;
12383;SDS011;6256;63.808;20.336;2023-05-24T14:47:25;4.05;;;2.95;;
12383;SDS011;6256;63.808;20.336;2023-05-24T14:49:50;4.28;;;2.88;;
12383;SDS011;6256;63.808;20.336;2023-05-24T14:52:16;5.57;;;3.30;;
12383;SDS011;6256;63.808;20.336;2023-05-24T14:54:42;4.28;;;3.60;;
12383;SDS011;6256;63.808;20.336;2023-05-24T14:57:07;6.73;;;3.50;;
12383;SDS011;6256;63.808;20.336;2023-05-24T14:59:33;3.78;;;3.38;;
12383;SDS011;6256;63.808;20.336;2023-05-24T15:01:59;3.93;;;3.50;;
12383;SDS011;6256;63.808;20.336;2023-05-24T15:04:25;4.23;;;3.67;;